sensor_id;sensor_type;location;lat;lon;timestamp;temperature;humidity
32334;DHT22;18810;53.040;8.850;2023-07-20T00:00:53;16.40;99.90
32334;DHT22;18810;53.040;8.850;2023-07-20T00:03:20;16.30;99.90
32334;DHT22;18810;53.040;8.850;2023-07-20T00:05:50;16.40;99.90
32334;DHT22;18810;53.040;8.850;2023-07-20T00:08:17;16.30;99.90
32334;DHT22;18810;53.040;8.850;2023-07-20T00:10:44;16.30;99.90
32334;DHT22;18810;53.040;8.850;2023-07-20T00:13:11;16.40;99.90
32334;DHT22;18810;53.040;8.850;2023-07-20T00:22:55;16.30;99.90
32334;DHT22;18810;53.040;8.850;2023-07-20T00:30:15;16.30;99.90
32334;DHT22;18810;53.040;8.850;2023-07-20T00:32:42;16.30;99.90
32334;DHT22;18810;53.040;8.850;2023-07-20T00:35:08;16.20;99.90
32334;DHT22;18810;53.040;8.850;2023-07-20T00:37:34;16.20;99.90
32334;DHT22;18810;53.040;8.850;2023-07-20T00:39:59;16.20;99.90
32334;DHT22;18810;53.040;8.850;2023-07-20T00:44:51;16.10;99.90
32334;DHT22;18810;53.040;8.850;2023-07-20T00:49:43;16.20;99.90
32334;DHT22;18810;53.040;8.850;2023-07-20T00:52:10;16.20;99.90
32334;DHT22;18810;53.040;8.850;2023-07-20T00:54:37;16.10;99.90
32334;DHT22;18810;53.040;8.850;2023-07-20T00:57:04;16.10;99.90
32334;DHT22;18810;53.040;8.850;2023-07-20T00:59:30;16.00;99.90
32334;DHT22;18810;53.040;8.850;2023-07-20T01:01:55;16.00;99.90
32334;DHT22;18810;53.040;8.850;2023-07-20T01:06:56;15.80;99.90
32334;DHT22;18810;53.040;8.850;2023-07-20T01:12:08;15.30;99.90
32334;DHT22;18810;53.040;8.850;2023-07-20T01:17:02;15.20;99.90
32334;DHT22;18810;53.040;8.850;2023-07-20T01:22:02;15.10;99.90
32334;DHT22;18810;53.040;8.850;2023-07-20T01:30:39;15.00;99.90
32334;DHT22;18810;53.040;8.850;2023-07-20T01:33:09;14.80;99.90
32334;DHT22;18810;53.040;8.850;2023-07-20T01:35:38;14.90;99.90
32334;DHT22;18810;53.040;8.850;2023-07-20T01:50:14;14.80;99.90
32334;DHT22;18810;53.040;8.850;2023-07-20T01:55:06;14.80;99.90
32334;DHT22;18810;53.040;8.850;2023-07-20T02:02:26;14.90;99.90
32334;DHT22;18810;53.040;8.850;2023-07-20T02:12:11;14.80;99.90
32334;DHT22;18810;53.040;8.850;2023-07-20T02:31:43;14.70;99.90
32334;DHT22;18810;53.040;8.850;2023-07-20T02:41:32;14.70;99.90
32334;DHT22;18810;53.040;8.850;2023-07-20T02:43:58;14.70;99.90
32334;DHT22;18810;53.040;8.850;2023-07-20T02:46:24;14.70;99.90
32334;DHT22;18810;53.040;8.850;2023-07-20T02:48:49;14.80;99.90
32334;DHT22;18810;53.040;8.850;2023-07-20T02:51:15;14.80;99.90
32334;DHT22;18810;53.040;8.850;2023-07-20T02:53:40;14.80;99.90
32334;DHT22;18810;53.040;8.850;2023-07-20T02:56:07;14.90;99.90
32334;DHT22;18810;53.040;8.850;2023-07-20T02:58:35;14.90;99.90
32334;DHT22;18810;53.040;8.850;2023-07-20T03:01:04;14.90;99.90
32334;DHT22;18810;53.040;8.850;2023-07-20T03:03:29;14.90;99.90
32334;DHT22;18810;53.040;8.850;2023-07-20T03:05:55;14.80;99.90
32334;DHT22;18810;53.040;8.850;2023-07-20T03:08:24;14.80;99.90
32334;DHT22;18810;53.040;8.850;2023-07-20T03:10:50;14.80;99.90
32334;DHT22;18810;53.040;8.850;2023-07-20T03:13:15;14.80;99.90
32334;DHT22;18810;53.040;8.850;2023-07-20T03:15:41;14.80;99.90
32334;DHT22;18810;53.040;8.850;2023-07-20T03:18:07;14.80;99.90
32334;DHT22;18810;53.040;8.850;2023-07-20T03:20:32;14.60;99.90
32334;DHT22;18810;53.040;8.850;2023-07-20T03:23:00;14.70;99.90
32334;DHT22;18810;53.040;8.850;2023-07-20T03:25:26;14.80;99.90
32334;DHT22;18810;53.040;8.850;2023-07-20T03:27:51;14.90;99.90
32334;DHT22;18810;53.040;8.850;2023-07-20T03:30:17;14.80;99.90
32334;DHT22;18810;53.040;8.850;2023-07-20T03:32:42;14.80;99.90
32334;DHT22;18810;53.040;8.850;2023-07-20T03:35:08;14.80;99.90
32334;DHT22;18810;53.040;8.850;2023-07-20T03:37:34;14.80;99.90
32334;DHT22;18810;53.040;8.850;2023-07-20T03:40:02;14.80;99.90
32334;DHT22;18810;53.040;8.850;2023-07-20T03:42:28;14.80;99.90
32334;DHT22;18810;53.040;8.850;2023-07-20T03:44:54;14.90;99.90
32334;DHT22;18810;53.040;8.850;2023-07-20T03:47:19;14.90;99.90
32334;DHT22;18810;53.040;8.850;2023-07-20T03:49:45;14.90;99.90
32334;DHT22;18810;53.040;8.850;2023-07-20T03:52:10;14.90;99.90
32334;DHT22;18810;53.040;8.850;2023-07-20T03:54:36;14.90;99.90
32334;DHT22;18810;53.040;8.850;2023-07-20T03:57:02;14.90;99.90
32334;DHT22;18810;53.040;8.850;2023-07-20T03:59:27;14.90;99.90
32334;DHT22;18810;53.040;8.850;2023-07-20T04:01:53;15.00;99.90
32334;DHT22;18810;53.040;8.850;2023-07-20T04:06:45;15.00;99.90
32334;DHT22;18810;53.040;8.850;2023-07-20T04:09:11;15.00;99.90
32334;DHT22;18810;53.040;8.850;2023-07-20T04:11:37;15.00;99.90
32334;DHT22;18810;53.040;8.850;2023-07-20T04:16:29;15.10;99.90
32334;DHT22;18810;53.040;8.850;2023-07-20T04:18:56;15.10;99.90
32334;DHT22;18810;53.040;8.850;2023-07-20T04:21:22;15.10;99.90
32334;DHT22;18810;53.040;8.850;2023-07-20T04:23:48;15.10;99.90
32334;DHT22;18810;53.040;8.850;2023-07-20T04:26:13;15.20;99.90
32334;DHT22;18810;53.040;8.850;2023-07-20T04:28:40;15.10;99.90
32334;DHT22;18810;53.040;8.850;2023-07-20T04:31:15;15.20;99.90
32334;DHT22;18810;53.040;8.850;2023-07-20T04:33:41;15.20;99.90
32334;DHT22;18810;53.040;8.850;2023-07-20T04:36:07;15.20;99.90
32334;DHT22;18810;53.040;8.850;2023-07-20T04:38:33;15.10;99.90
32334;DHT22;18810;53.040;8.850;2023-07-20T04:40:59;15.10;99.90
32334;DHT22;18810;53.040;8.850;2023-07-20T04:43:25;15.10;99.90
32334;DHT22;18810;53.040;8.850;2023-07-20T04:45:51;15.10;99.90
32334;DHT22;18810;53.040;8.850;2023-07-20T04:48:17;15.10;99.90
32334;DHT22;18810;53.040;8.850;2023-07-20T04:50:44;15.00;99.90
32334;DHT22;18810;53.040;8.850;2023-07-20T04:53:13;15.10;99.90
32334;DHT22;18810;53.040;8.850;2023-07-20T04:55:39;15.20;99.90
32334;DHT22;18810;53.040;8.850;2023-07-20T04:58:06;15.30;99.90
32334;DHT22;18810;53.040;8.850;2023-07-20T05:00:33;15.50;99.90
32334;DHT22;18810;53.040;8.850;2023-07-20T05:02:59;15.40;99.90
32334;DHT22;18810;53.040;8.850;2023-07-20T05:05:24;15.50;99.90
32334;DHT22;18810;53.040;8.850;2023-07-20T05:07:50;15.50;99.90
32334;DHT22;18810;53.040;8.850;2023-07-20T05:10:16;15.40;99.90
32334;DHT22;18810;53.040;8.850;2023-07-20T05:12:42;15.30;99.90
32334;DHT22;18810;53.040;8.850;2023-07-20T05:15:08;15.20;99.90
32334;DHT22;18810;53.040;8.850;2023-07-20T05:17:33;15.10;99.90
32334;DHT22;18810;53.040;8.850;2023-07-20T05:19:59;15.10;99.90
32334;DHT22;18810;53.040;8.850;2023-07-20T05:22:25;15.20;99.90
32334;DHT22;18810;53.040;8.850;2023-07-20T05:24:50;15.20;99.90
32334;DHT22;18810;53.040;8.850;2023-07-20T05:27:16;15.10;99.90
32334;DHT22;18810;53.040;8.850;2023-07-20T05:29:46;15.10;99.90
32334;DHT22;18810;53.040;8.850;2023-07-20T05:32:15;15.10;99.90
32334;DHT22;18810;53.040;8.850;2023-07-20T05:34:40;15.10;99.90
32334;DHT22;18810;53.040;8.850;2023-07-20T05:37:06;15.10;99.90
32334;DHT22;18810;53.040;8.850;2023-07-20T05:39:35;15.20;99.90
32334;DHT22;18810;53.040;8.850;2023-07-20T05:42:00;15.30;99.90
32334;DHT22;18810;53.040;8.850;2023-07-20T05:44:26;15.30;99.90
32334;DHT22;18810;53.040;8.850;2023-07-20T05:46:51;15.40;99.90
32334;DHT22;18810;53.040;8.850;2023-07-20T05:49:17;15.40;99.90
32334;DHT22;18810;53.040;8.850;2023-07-20T05:51:43;15.50;99.90
32334;DHT22;18810;53.040;8.850;2023-07-20T05:54:08;15.60;99.90
32334;DHT22;18810;53.040;8.850;2023-07-20T05:56:34;15.50;99.90
32334;DHT22;18810;53.040;8.850;2023-07-20T05:58:59;15.70;99.90
32334;DHT22;18810;53.040;8.850;2023-07-20T06:01:25;15.60;99.90
32334;DHT22;18810;53.040;8.850;2023-07-20T06:03:53;15.70;99.90
32334;DHT22;18810;53.040;8.850;2023-07-20T06:06:18;15.70;99.90
32334;DHT22;18810;53.040;8.850;2023-07-20T06:08:44;15.80;99.90
32334;DHT22;18810;53.040;8.850;2023-07-20T06:11:11;16.00;99.90
32334;DHT22;18810;53.040;8.850;2023-07-20T06:13:36;16.00;99.90
32334;DHT22;18810;53.040;8.850;2023-07-20T06:16:02;16.00;99.90
32334;DHT22;18810;53.040;8.850;2023-07-20T06:18:28;16.10;99.90
32334;DHT22;18810;53.040;8.850;2023-07-20T06:20:55;16.20;99.90
32334;DHT22;18810;53.040;8.850;2023-07-20T06:23:21;16.40;99.90
32334;DHT22;18810;53.040;8.850;2023-07-20T06:25:47;16.70;99.90
32334;DHT22;18810;53.040;8.850;2023-07-20T06:28:13;17.00;99.90
32334;DHT22;18810;53.040;8.850;2023-07-20T06:30:39;18.00;99.90
32334;DHT22;18810;53.040;8.850;2023-07-20T06:33:05;18.00;99.90
32334;DHT22;18810;53.040;8.850;2023-07-20T06:35:32;18.50;99.90
32334;DHT22;18810;53.040;8.850;2023-07-20T06:37:57;18.70;99.90
32334;DHT22;18810;53.040;8.850;2023-07-20T06:40:24;19.30;99.90
32334;DHT22;18810;53.040;8.850;2023-07-20T06:42:50;20.30;99.90
32334;DHT22;18810;53.040;8.850;2023-07-20T06:45:15;21.90;99.90
32334;DHT22;18810;53.040;8.850;2023-07-20T06:47:41;23.10;99.90
32334;DHT22;18810;53.040;8.850;2023-07-20T06:50:08;24.00;99.90
32334;DHT22;18810;53.040;8.850;2023-07-20T06:52:34;24.80;99.90
32334;DHT22;18810;53.040;8.850;2023-07-20T06:55:00;24.60;99.90
32334;DHT22;18810;53.040;8.850;2023-07-20T06:57:26;23.50;99.90
32334;DHT22;18810;53.040;8.850;2023-07-20T06:59:52;21.70;99.90
32334;DHT22;18810;53.040;8.850;2023-07-20T07:02:18;20.80;99.90
32334;DHT22;18810;53.040;8.850;2023-07-20T07:04:44;20.40;99.90
32334;DHT22;18810;53.040;8.850;2023-07-20T07:07:10;19.80;99.90
32334;DHT22;18810;53.040;8.850;2023-07-20T07:09:36;19.30;99.90
32334;DHT22;18810;53.040;8.850;2023-07-20T07:12:02;19.10;99.90
32334;DHT22;18810;53.040;8.850;2023-07-20T07:14:27;19.20;99.90
32334;DHT22;18810;53.040;8.850;2023-07-20T07:16:53;19.20;99.90
32334;DHT22;18810;53.040;8.850;2023-07-20T07:19:19;19.40;99.90
32334;DHT22;18810;53.040;8.850;2023-07-20T07:21:45;19.30;99.90
32334;DHT22;18810;53.040;8.850;2023-07-20T07:24:11;19.30;99.90
32334;DHT22;18810;53.040;8.850;2023-07-20T07:26:37;19.60;99.90
32334;DHT22;18810;53.040;8.850;2023-07-20T07:29:03;20.10;99.90
32334;DHT22;18810;53.040;8.850;2023-07-20T07:31:29;20.50;99.90
32334;DHT22;18810;53.040;8.850;2023-07-20T07:33:56;20.90;99.90
32334;DHT22;18810;53.040;8.850;2023-07-20T07:36:21;20.70;99.90
32334;DHT22;18810;53.040;8.850;2023-07-20T07:38:48;20.40;99.90
32334;DHT22;18810;53.040;8.850;2023-07-20T07:41:14;20.40;99.90
32334;DHT22;18810;53.040;8.850;2023-07-20T07:43:39;20.20;99.90
32334;DHT22;18810;53.040;8.850;2023-07-20T07:46:05;20.00;99.90
32334;DHT22;18810;53.040;8.850;2023-07-20T07:48:31;20.40;99.90
32334;DHT22;18810;53.040;8.850;2023-07-20T07:50:56;21.10;99.90
32334;DHT22;18810;53.040;8.850;2023-07-20T07:53:22;21.10;99.90
32334;DHT22;18810;53.040;8.850;2023-07-20T07:55:48;22.50;99.90
32334;DHT22;18810;53.040;8.850;2023-07-20T07:58:13;23.80;99.90
32334;DHT22;18810;53.040;8.850;2023-07-20T08:00:39;25.90;98.10
32334;DHT22;18810;53.040;8.850;2023-07-20T08:03:08;26.00;98.20
32334;DHT22;18810;53.040;8.850;2023-07-20T08:05:34;26.70;96.60
32334;DHT22;18810;53.040;8.850;2023-07-20T08:08:03;27.60;95.90
32334;DHT22;18810;53.040;8.850;2023-07-20T08:10:30;26.00;96.00
32334;DHT22;18810;53.040;8.850;2023-07-20T08:12:55;26.00;96.30
32334;DHT22;18810;53.040;8.850;2023-07-20T08:15:21;26.40;95.40
32334;DHT22;18810;53.040;8.850;2023-07-20T08:17:47;26.10;94.20
32334;DHT22;18810;53.040;8.850;2023-07-20T08:20:14;25.40;95.50
32334;DHT22;18810;53.040;8.850;2023-07-20T08:22:41;26.00;95.70
32334;DHT22;18810;53.040;8.850;2023-07-20T08:25:08;27.00;95.40
32334;DHT22;18810;53.040;8.850;2023-07-20T08:27:34;26.10;94.30
32334;DHT22;18810;53.040;8.850;2023-07-20T08:30:00;24.10;95.70
32334;DHT22;18810;53.040;8.850;2023-07-20T08:32:26;23.00;98.20
32334;DHT22;18810;53.040;8.850;2023-07-20T08:34:52;23.90;98.20
32334;DHT22;18810;53.040;8.850;2023-07-20T08:37:17;25.20;96.00
32334;DHT22;18810;53.040;8.850;2023-07-20T08:39:43;25.60;94.00
32334;DHT22;18810;53.040;8.850;2023-07-20T08:42:14;25.90;93.00
32334;DHT22;18810;53.040;8.850;2023-07-20T08:44:41;25.50;93.60
32334;DHT22;18810;53.040;8.850;2023-07-20T08:47:09;25.70;94.50
32334;DHT22;18810;53.040;8.850;2023-07-20T08:49:35;26.40;94.80
32334;DHT22;18810;53.040;8.850;2023-07-20T08:52:02;27.30;93.70
32334;DHT22;18810;53.040;8.850;2023-07-20T08:54:30;27.30;90.90
32334;DHT22;18810;53.040;8.850;2023-07-20T08:57:02;27.30;92.50
32334;DHT22;18810;53.040;8.850;2023-07-20T08:59:29;28.80;90.00
32334;DHT22;18810;53.040;8.850;2023-07-20T09:01:56;28.70;90.20
32334;DHT22;18810;53.040;8.850;2023-07-20T09:04:23;28.70;89.10
32334;DHT22;18810;53.040;8.850;2023-07-20T09:06:50;28.70;90.10
32334;DHT22;18810;53.040;8.850;2023-07-20T09:09:16;29.00;90.10
32334;DHT22;18810;53.040;8.850;2023-07-20T09:11:42;29.30;89.70
32334;DHT22;18810;53.040;8.850;2023-07-20T09:14:09;28.20;88.30
32334;DHT22;18810;53.040;8.850;2023-07-20T09:16:53;27.70;89.60
32334;DHT22;18810;53.040;8.850;2023-07-20T09:19:20;27.70;89.70
32334;DHT22;18810;53.040;8.850;2023-07-20T09:21:48;28.10;87.40
32334;DHT22;18810;53.040;8.850;2023-07-20T09:26:44;27.50;89.00
32334;DHT22;18810;53.040;8.850;2023-07-20T09:29:11;27.50;89.10
32334;DHT22;18810;53.040;8.850;2023-07-20T09:34:05;28.60;86.90
32334;DHT22;18810;53.040;8.850;2023-07-20T09:36:34;28.50;83.90
32334;DHT22;18810;53.040;8.850;2023-07-20T09:39:01;28.80;84.30
32334;DHT22;18810;53.040;8.850;2023-07-20T09:41:27;29.50;85.40
32334;DHT22;18810;53.040;8.850;2023-07-20T09:43:53;29.80;81.80
32334;DHT22;18810;53.040;8.850;2023-07-20T09:48:55;30.30;81.60
32334;DHT22;18810;53.040;8.850;2023-07-20T09:51:24;30.00;79.60
32334;DHT22;18810;53.040;8.850;2023-07-20T09:53:52;29.90;82.70
32334;DHT22;18810;53.040;8.850;2023-07-20T09:56:21;30.10;78.90
32334;DHT22;18810;53.040;8.850;2023-07-20T09:58:48;29.30;80.50
32334;DHT22;18810;53.040;8.850;2023-07-20T10:01:18;29.10;82.20
32334;DHT22;18810;53.040;8.850;2023-07-20T10:03:46;29.20;81.20
32334;DHT22;18810;53.040;8.850;2023-07-20T10:06:15;29.10;81.80
32334;DHT22;18810;53.040;8.850;2023-07-20T10:08:41;29.60;80.70
32334;DHT22;18810;53.040;8.850;2023-07-20T10:13:38;29.50;78.00
32334;DHT22;18810;53.040;8.850;2023-07-20T10:16:09;29.50;78.70
32334;DHT22;18810;53.040;8.850;2023-07-20T10:18:43;28.20;81.00
32334;DHT22;18810;53.040;8.850;2023-07-20T10:21:14;26.80;82.80
32334;DHT22;18810;53.040;8.850;2023-07-20T10:28:34;23.50;98.60
32334;DHT22;18810;53.040;8.850;2023-07-20T10:33:26;20.50;99.90
32334;DHT22;18810;53.040;8.850;2023-07-20T10:36:02;19.90;99.90
32334;DHT22;18810;53.040;8.850;2023-07-20T10:41:34;19.70;99.90
32334;DHT22;18810;53.040;8.850;2023-07-20T10:44:05;19.60;99.90
32334;DHT22;18810;53.040;8.850;2023-07-20T10:49:04;20.20;99.90
32334;DHT22;18810;53.040;8.850;2023-07-20T10:51:57;20.90;99.90
32334;DHT22;18810;53.040;8.850;2023-07-20T10:59:20;22.80;99.90
32334;DHT22;18810;53.040;8.850;2023-07-20T11:02:06;23.80;99.90
32334;DHT22;18810;53.040;8.850;2023-07-20T11:04:41;23.80;99.90
32334;DHT22;18810;53.040;8.850;2023-07-20T11:07:07;23.30;99.90
32334;DHT22;18810;53.040;8.850;2023-07-20T11:09:34;23.80;99.90
32334;DHT22;18810;53.040;8.850;2023-07-20T11:12:14;24.60;99.90
32334;DHT22;18810;53.040;8.850;2023-07-20T11:14:53;25.10;99.90
32334;DHT22;18810;53.040;8.850;2023-07-20T11:17:19;25.50;99.90
32334;DHT22;18810;53.040;8.850;2023-07-20T11:19:55;25.00;98.90
32334;DHT22;18810;53.040;8.850;2023-07-20T11:22:21;24.40;98.40
32334;DHT22;18810;53.040;8.850;2023-07-20T11:27:15;24.60;99.90
32334;DHT22;18810;53.040;8.850;2023-07-20T11:29:41;25.10;98.40
32334;DHT22;18810;53.040;8.850;2023-07-20T11:32:07;25.30;97.40
32334;DHT22;18810;53.040;8.850;2023-07-20T11:34:34;26.70;95.90
32334;DHT22;18810;53.040;8.850;2023-07-20T11:37:00;26.60;96.20
32334;DHT22;18810;53.040;8.850;2023-07-20T11:39:26;26.60;94.60
32334;DHT22;18810;53.040;8.850;2023-07-20T11:41:56;26.80;94.60
32334;DHT22;18810;53.040;8.850;2023-07-20T11:44:24;27.00;94.70
32334;DHT22;18810;53.040;8.850;2023-07-20T11:47:17;26.80;93.60
32334;DHT22;18810;53.040;8.850;2023-07-20T11:49:44;26.70;93.90
32334;DHT22;18810;53.040;8.850;2023-07-20T11:52:13;27.90;91.90
32334;DHT22;18810;53.040;8.850;2023-07-20T12:02:01;28.10;89.10
32334;DHT22;18810;53.040;8.850;2023-07-20T12:11:49;29.00;88.30
32334;DHT22;18810;53.040;8.850;2023-07-20T12:19:12;29.30;88.10
32334;DHT22;18810;53.040;8.850;2023-07-20T12:21:39;28.00;94.50
32334;DHT22;18810;53.040;8.850;2023-07-20T12:24:07;28.00;94.80
32334;DHT22;18810;53.040;8.850;2023-07-20T12:26:34;26.20;99.90
32334;DHT22;18810;53.040;8.850;2023-07-20T12:31:27;23.00;99.90
32334;DHT22;18810;53.040;8.850;2023-07-20T12:33:54;22.80;99.90
32334;DHT22;18810;53.040;8.850;2023-07-20T12:36:22;22.30;99.90
32334;DHT22;18810;53.040;8.850;2023-07-20T12:38:48;22.10;99.90
32334;DHT22;18810;53.040;8.850;2023-07-20T12:43:44;22.40;99.90
32334;DHT22;18810;53.040;8.850;2023-07-20T12:46:11;22.40;99.90
32334;DHT22;18810;53.040;8.850;2023-07-20T12:48:40;22.40;99.90
32334;DHT22;18810;53.040;8.850;2023-07-20T12:51:08;22.30;99.90
32334;DHT22;18810;53.040;8.850;2023-07-20T12:53:34;22.40;99.90
32334;DHT22;18810;53.040;8.850;2023-07-20T12:58:26;23.50;99.90
32334;DHT22;18810;53.040;8.850;2023-07-20T13:03:19;24.50;99.90
32334;DHT22;18810;53.040;8.850;2023-07-20T13:05:45;26.30;99.50
32334;DHT22;18810;53.040;8.850;2023-07-20T13:08:11;26.20;99.80
32334;DHT22;18810;53.040;8.850;2023-07-20T13:10:37;26.10;98.70
32334;DHT22;18810;53.040;8.850;2023-07-20T13:13:04;25.30;96.80
32334;DHT22;18810;53.040;8.850;2023-07-20T13:15:31;24.80;97.80
32334;DHT22;18810;53.040;8.850;2023-07-20T13:17:57;24.00;98.40
32334;DHT22;18810;53.040;8.850;2023-07-20T13:20:24;23.90;98.70
32334;DHT22;18810;53.040;8.850;2023-07-20T13:22:50;23.60;99.10
32334;DHT22;18810;53.040;8.850;2023-07-20T13:27:42;23.30;99.20
32334;DHT22;18810;53.040;8.850;2023-07-20T13:30:08;23.20;99.20
32334;DHT22;18810;53.040;8.850;2023-07-20T13:32:36;23.10;98.60
32334;DHT22;18810;53.040;8.850;2023-07-20T13:35:03;23.20;99.00
32334;DHT22;18810;53.040;8.850;2023-07-20T13:37:29;23.50;99.10
32334;DHT22;18810;53.040;8.850;2023-07-20T13:42:21;23.10;95.70
32334;DHT22;18810;53.040;8.850;2023-07-20T13:44:48;23.20;95.30
32334;DHT22;18810;53.040;8.850;2023-07-20T13:47:14;23.10;95.50
32334;DHT22;18810;53.040;8.850;2023-07-20T13:49:41;23.30;96.50
32334;DHT22;18810;53.040;8.850;2023-07-20T13:52:06;23.30;95.90
32334;DHT22;18810;53.040;8.850;2023-07-20T13:56:58;24.10;95.10
32334;DHT22;18810;53.040;8.850;2023-07-20T13:59:24;24.60;95.40
32334;DHT22;18810;53.040;8.850;2023-07-20T14:01:50;26.20;91.60
32334;DHT22;18810;53.040;8.850;2023-07-20T14:04:16;26.50;91.40
32334;DHT22;18810;53.040;8.850;2023-07-20T14:06:42;26.00;92.30
32334;DHT22;18810;53.040;8.850;2023-07-20T14:09:08;25.90;91.90
32334;DHT22;18810;53.040;8.850;2023-07-20T14:14:00;25.30;93.30
32334;DHT22;18810;53.040;8.850;2023-07-20T14:18:52;24.80;93.10
32334;DHT22;18810;53.040;8.850;2023-07-20T14:21:19;24.70;94.50
32334;DHT22;18810;53.040;8.850;2023-07-20T14:23:49;24.70;94.80
32334;DHT22;18810;53.040;8.850;2023-07-20T14:31:07;24.20;92.50
32334;DHT22;18810;53.040;8.850;2023-07-20T14:33:33;23.80;91.80
32334;DHT22;18810;53.040;8.850;2023-07-20T14:43:18;23.60;94.70
32334;DHT22;18810;53.040;8.850;2023-07-20T14:45:44;23.60;96.20
32334;DHT22;18810;53.040;8.850;2023-07-20T14:48:11;23.50;96.10
32334;DHT22;18810;53.040;8.850;2023-07-20T14:50:36;23.70;96.70
32334;DHT22;18810;53.040;8.850;2023-07-20T14:53:02;23.80;96.30
32334;DHT22;18810;53.040;8.850;2023-07-20T14:55:28;23.90;95.60
32334;DHT22;18810;53.040;8.850;2023-07-20T14:57:54;24.00;95.70
32334;DHT22;18810;53.040;8.850;2023-07-20T15:00:20;24.20;96.00
32334;DHT22;18810;53.040;8.850;2023-07-20T15:02:45;24.50;95.40
32334;DHT22;18810;53.040;8.850;2023-07-20T15:05:11;24.80;95.10
32334;DHT22;18810;53.040;8.850;2023-07-20T15:07:37;25.60;93.50
32334;DHT22;18810;53.040;8.850;2023-07-20T15:10:04;26.00;92.60
32334;DHT22;18810;53.040;8.850;2023-07-20T15:12:30;26.20;92.20
32334;DHT22;18810;53.040;8.850;2023-07-20T15:15:10;26.40;92.30
32334;DHT22;18810;53.040;8.850;2023-07-20T15:17:37;26.70;91.80
32334;DHT22;18810;53.040;8.850;2023-07-20T15:20:04;26.80;91.90
32334;DHT22;18810;53.040;8.850;2023-07-20T15:22:34;26.50;91.80
32334;DHT22;18810;53.040;8.850;2023-07-20T15:25:02;26.20;91.60
32334;DHT22;18810;53.040;8.850;2023-07-20T15:27:27;25.90;92.30
32334;DHT22;18810;53.040;8.850;2023-07-20T15:29:53;25.90;92.70
32334;DHT22;18810;53.040;8.850;2023-07-20T15:32:19;25.90;92.50
32334;DHT22;18810;53.040;8.850;2023-07-20T15:34:44;25.80;93.20
32334;DHT22;18810;53.040;8.850;2023-07-20T15:37:11;25.80;93.50
32334;DHT22;18810;53.040;8.850;2023-07-20T15:39:37;26.00;93.20
32334;DHT22;18810;53.040;8.850;2023-07-20T15:42:03;26.00;92.40
32334;DHT22;18810;53.040;8.850;2023-07-20T15:44:29;26.00;92.60
32334;DHT22;18810;53.040;8.850;2023-07-20T15:46:55;25.70;91.90
32334;DHT22;18810;53.040;8.850;2023-07-20T15:49:21;25.30;92.60
32334;DHT22;18810;53.040;8.850;2023-07-20T15:51:47;24.60;92.40
32334;DHT22;18810;53.040;8.850;2023-07-20T15:54:14;24.60;92.70
32334;DHT22;18810;53.040;8.850;2023-07-20T15:56:41;24.40;93.30
32334;DHT22;18810;53.040;8.850;2023-07-20T15:59:10;24.10;93.80
32334;DHT22;18810;53.040;8.850;2023-07-20T16:01:37;23.80;95.40
32334;DHT22;18810;53.040;8.850;2023-07-20T16:04:05;23.10;98.90
32334;DHT22;18810;53.040;8.850;2023-07-20T16:06:31;22.10;99.90
32334;DHT22;18810;53.040;8.850;2023-07-20T16:08:57;21.50;99.90
32334;DHT22;18810;53.040;8.850;2023-07-20T16:11:23;21.00;99.90
32334;DHT22;18810;53.040;8.850;2023-07-20T16:13:50;20.80;99.90
32334;DHT22;18810;53.040;8.850;2023-07-20T16:16:17;20.70;99.90
32334;DHT22;18810;53.040;8.850;2023-07-20T16:18:43;20.70;99.90
32334;DHT22;18810;53.040;8.850;2023-07-20T16:23:35;21.00;99.90
32334;DHT22;18810;53.040;8.850;2023-07-20T16:26:00;21.10;99.90
32334;DHT22;18810;53.040;8.850;2023-07-20T16:28:26;21.20;99.90
32334;DHT22;18810;53.040;8.850;2023-07-20T16:30:52;21.40;99.90
32334;DHT22;18810;53.040;8.850;2023-07-20T16:33:18;21.30;99.90
32334;DHT22;18810;53.040;8.850;2023-07-20T16:35:44;21.20;99.90
32334;DHT22;18810;53.040;8.850;2023-07-20T16:38:10;21.10;99.90
32334;DHT22;18810;53.040;8.850;2023-07-20T16:40:36;21.30;99.90
32334;DHT22;18810;53.040;8.850;2023-07-20T16:43:02;21.60;99.90
32334;DHT22;18810;53.040;8.850;2023-07-20T16:45:28;21.70;99.90
32334;DHT22;18810;53.040;8.850;2023-07-20T16:47:54;22.00;99.90
32334;DHT22;18810;53.040;8.850;2023-07-20T16:50:20;22.10;99.90
32334;DHT22;18810;53.040;8.850;2023-07-20T16:52:46;22.10;99.90
32334;DHT22;18810;53.040;8.850;2023-07-20T16:55:12;22.10;99.90
32334;DHT22;18810;53.040;8.850;2023-07-20T16:57:38;22.00;99.90
32334;DHT22;18810;53.040;8.850;2023-07-20T17:00:04;21.90;99.90
32334;DHT22;18810;53.040;8.850;2023-07-20T17:02:39;22.00;99.90
32334;DHT22;18810;53.040;8.850;2023-07-20T17:05:05;21.90;99.90
32334;DHT22;18810;53.040;8.850;2023-07-20T17:07:41;21.50;99.90
32334;DHT22;18810;53.040;8.850;2023-07-20T17:10:07;20.80;99.90
32334;DHT22;18810;53.040;8.850;2023-07-20T17:12:36;20.10;99.90
32334;DHT22;18810;53.040;8.850;2023-07-20T17:15:02;19.00;99.90
32334;DHT22;18810;53.040;8.850;2023-07-20T17:17:27;18.90;99.90
32334;DHT22;18810;53.040;8.850;2023-07-20T17:19:53;18.70;99.90
32334;DHT22;18810;53.040;8.850;2023-07-20T17:22:19;18.80;99.90
32334;DHT22;18810;53.040;8.850;2023-07-20T17:24:44;18.80;99.90
32334;DHT22;18810;53.040;8.850;2023-07-20T17:27:10;18.90;99.90
32334;DHT22;18810;53.040;8.850;2023-07-20T17:29:36;18.80;99.90
32334;DHT22;18810;53.040;8.850;2023-07-20T17:32:02;18.60;99.90
32334;DHT22;18810;53.040;8.850;2023-07-20T17:34:28;18.70;99.90
32334;DHT22;18810;53.040;8.850;2023-07-20T17:36:53;18.80;99.90
32334;DHT22;18810;53.040;8.850;2023-07-20T17:39:21;18.70;99.90
32334;DHT22;18810;53.040;8.850;2023-07-20T17:41:47;18.70;99.90
32334;DHT22;18810;53.040;8.850;2023-07-20T17:44:15;18.80;99.90
32334;DHT22;18810;53.040;8.850;2023-07-20T17:46:40;18.90;99.90
32334;DHT22;18810;53.040;8.850;2023-07-20T17:49:06;18.90;99.90
32334;DHT22;18810;53.040;8.850;2023-07-20T17:51:32;18.90;99.90
32334;DHT22;18810;53.040;8.850;2023-07-20T17:53:57;19.00;99.90
32334;DHT22;18810;53.040;8.850;2023-07-20T17:56:23;19.10;99.90
32334;DHT22;18810;53.040;8.850;2023-07-20T17:58:49;19.20;99.90
32334;DHT22;18810;53.040;8.850;2023-07-20T18:01:14;19.30;99.90
32334;DHT22;18810;53.040;8.850;2023-07-20T18:03:40;19.20;99.90
32334;DHT22;18810;53.040;8.850;2023-07-20T18:06:06;19.20;99.90
32334;DHT22;18810;53.040;8.850;2023-07-20T18:08:32;19.20;99.90
32334;DHT22;18810;53.040;8.850;2023-07-20T18:11:03;19.10;99.90
32334;DHT22;18810;53.040;8.850;2023-07-20T18:13:29;19.00;99.90
32334;DHT22;18810;53.040;8.850;2023-07-20T18:15:55;18.90;99.90
32334;DHT22;18810;53.040;8.850;2023-07-20T18:18:23;18.80;99.90
32334;DHT22;18810;53.040;8.850;2023-07-20T18:20:49;18.60;99.90
32334;DHT22;18810;53.040;8.850;2023-07-20T18:23:15;18.50;99.90